createdAt,value
2018-12-06T05:41:10.620Z,31.90
2018-12-06T05:43:40.003Z,31.40
2018-12-06T05:46:10.148Z,27.73
2018-12-06T05:48:39.511Z,25.20
2018-12-06T05:51:08.800Z,24.93
2018-12-06T05:53:38.124Z,31.80
2018-12-06T05:56:08.412Z,29.40
2018-12-06T05:58:37.701Z,29.23
2018-12-06T06:01:06.971Z,26.13
2018-12-06T06:03:37.147Z,27.13
2018-12-06T06:06:06.527Z,29.90
2018-12-06T06:08:35.805Z,25.97
2018-12-06T06:11:05.170Z,25.67
2018-12-06T06:13:34.501Z,32.10
2018-12-06T06:19:01.816Z,30.30
2018-12-06T06:21:31.491Z,27.10
2018-12-06T06:24:00.778Z,27.20
2018-12-06T06:26:30.409Z,26.73
2018-12-06T06:28:59.772Z,33.87
2018-12-06T06:31:29.224Z,27.07
2018-12-06T06:33:58.598Z,33.27
2018-12-06T06:36:27.859Z,29.93
2018-12-06T06:38:57.146Z,32.37
2018-12-06T06:41:26.552Z,31.77
2018-12-06T06:43:55.903Z,26.07
2018-12-06T06:46:25.182Z,29.03
2018-12-06T06:48:54.607Z,28.53
2018-12-06T06:51:23.951Z,27.53
2018-12-06T06:53:53.257Z,30.70
2018-12-06T06:56:22.484Z,29.03
2018-12-06T06:58:51.831Z,37.23
2018-12-06T07:01:21.220Z,25.87
2018-12-06T07:03:50.446Z,31.87
2018-12-06T07:06:19.778Z,25.67
2018-12-06T07:08:49.116Z,22.83
2018-12-06T07:11:18.438Z,25.03
2018-12-06T07:13:47.653Z,26.40
2018-12-06T07:16:17.023Z,24.07
2018-12-06T07:18:46.229Z,29.17
2018-12-06T07:21:15.602Z,30.80
2018-12-06T07:23:44.940Z,27.60
2018-12-06T07:26:14.259Z,30.90
2018-12-06T07:28:43.567Z,30.57
2018-12-06T07:31:12.872Z,37.13
2018-12-06T07:33:42.078Z,31.03
2018-12-06T07:36:11.303Z,31.90
2018-12-06T07:38:40.597Z,37.97
2018-12-06T07:44:10.747Z,34.10
2018-12-06T07:46:40.546Z,40.13
2018-12-06T07:49:09.935Z,35.03
2018-12-06T07:51:39.244Z,32.97
2018-12-06T07:54:08.650Z,38.77
2018-12-06T07:56:37.856Z,31.50
2018-12-06T07:59:07.844Z,37.47
2018-12-06T08:01:37.168Z,34.07
2018-12-06T08:04:06.569Z,31.80
2018-12-06T08:06:35.924Z,33.13
2018-12-06T08:09:09.382Z,32.57
2018-12-06T08:11:38.798Z,37.33
2018-12-06T08:14:08.398Z,40.70
2018-12-06T08:16:37.797Z,32.40
2018-12-06T08:19:07.263Z,34.33
2018-12-06T08:21:36.602Z,29.83
2018-12-06T08:24:05.902Z,37.90
2018-12-06T08:26:35.246Z,37.90
2018-12-06T08:29:04.767Z,36.30
2018-12-06T08:31:34.138Z,32.97
2018-12-06T08:34:06.340Z,33.93
2018-12-06T08:36:34.678Z,33.77
2018-12-06T08:39:04.877Z,34.90
2018-12-06T08:41:34.146Z,38.40
2018-12-06T08:44:03.563Z,35.97
2018-12-06T08:46:32.802Z,32.47
2018-12-06T08:49:03.119Z,40.23
2018-12-06T08:51:32.668Z,29.03
2018-12-06T08:54:01.904Z,34.43
2018-12-06T08:56:31.207Z,37.00
2018-12-06T08:59:01.214Z,36.80
2018-12-06T09:01:30.517Z,33.27
2018-12-06T09:03:59.843Z,30.20
2018-12-06T09:06:29.095Z,46.90
2018-12-06T09:08:58.438Z,35.27
2018-12-06T09:11:27.830Z,39.80
2018-12-06T09:13:57.066Z,35.53
2018-12-06T09:16:26.300Z,39.50
2018-12-06T09:18:55.544Z,31.43
2018-12-06T09:21:24.774Z,39.93
2018-12-06T09:23:54.038Z,32.90
2018-12-06T09:26:24.369Z,38.87
2018-12-06T09:28:54.063Z,34.83
2018-12-06T09:31:23.318Z,28.37
2018-12-06T09:34:06.151Z,37.50
2018-12-06T09:36:36.195Z,28.00
2018-12-06T09:39:09.779Z,31.30
2018-12-06T09:41:39.026Z,27.47
2018-12-06T09:44:08.507Z,32.43
2018-12-06T09:46:37.798Z,29.97
2018-12-06T09:49:07.551Z,27.83
2018-12-06T09:51:36.877Z,30.57
2018-12-06T09:54:06.290Z,40.37
2018-12-06T09:56:35.639Z,33.37
2018-12-06T09:59:05.028Z,31.30
2018-12-06T10:01:34.273Z,33.80
2018-12-06T10:04:03.606Z,38.03
2018-12-06T10:06:33.258Z,31.20
2018-12-06T10:09:02.478Z,29.83
2018-12-06T10:11:32.103Z,31.57
2018-12-06T10:14:01.446Z,30.93
2018-12-06T10:16:30.777Z,32.03
2018-12-06T10:19:01.090Z,30.43
2018-12-06T10:21:30.391Z,38.33
2018-12-06T10:24:00.211Z,32.70
2018-12-06T10:26:29.473Z,41.97
2018-12-06T10:28:59.024Z,35.30
2018-12-06T10:31:28.345Z,32.57
2018-12-06T10:33:57.526Z,34.77
2018-12-06T10:36:26.735Z,35.67
2018-12-06T10:38:56.027Z,31.03
2018-12-06T10:41:25.231Z,28.87
2018-12-06T10:43:54.546Z,34.67
2018-12-06T10:46:23.890Z,40.20
2018-12-06T10:48:53.445Z,36.37
2018-12-06T10:51:41.587Z,31.47
2018-12-06T10:54:11.070Z,36.90
2018-12-06T10:56:40.315Z,36.33
2018-12-06T10:59:09.542Z,37.10
2018-12-06T11:01:44.136Z,33.20
2018-12-06T11:04:13.353Z,38.20
2018-12-06T11:06:42.663Z,31.77
2018-12-06T11:09:11.984Z,32.77
2018-12-06T11:11:41.274Z,34.40
2018-12-06T11:14:10.745Z,35.27
2018-12-06T11:16:40.116Z,35.77
2018-12-06T11:19:09.446Z,40.63
2018-12-06T11:21:38.702Z,36.70
2018-12-06T11:24:07.945Z,41.93
2018-12-06T11:26:37.174Z,37.43
2018-12-06T11:29:06.414Z,46.03
2018-12-06T11:31:35.641Z,47.43
2018-12-06T11:34:05.118Z,51.60
2018-12-06T11:36:34.486Z,34.60
2018-12-06T11:39:05.387Z,48.93
2018-12-06T11:41:34.694Z,51.93
2018-12-06T11:44:04.097Z,51.77
2018-12-06T11:46:33.306Z,54.53
2018-12-06T11:49:02.546Z,48.57
2018-12-06T11:51:31.868Z,45.53
2018-12-06T11:54:01.066Z,40.30
2018-12-06T11:56:30.275Z,44.03
2018-12-06T11:58:59.495Z,42.07
2018-12-06T12:01:28.790Z,47.70
2018-12-06T12:03:58.018Z,43.40
2018-12-06T12:06:27.338Z,44.93
2018-12-06T12:08:56.551Z,47.47
2018-12-06T12:11:25.779Z,50.53
2018-12-06T12:13:55.064Z,46.80
2018-12-06T12:16:24.283Z,40.83
2018-12-06T12:18:53.514Z,38.53
2018-12-06T12:21:22.759Z,43.77
2018-12-06T12:23:51.970Z,44.17
2018-12-06T12:26:21.390Z,46.77
2018-12-06T12:28:50.587Z,48.30
2018-12-06T12:31:20.066Z,47.57
2018-12-06T12:33:49.274Z,49.43
2018-12-06T12:36:18.482Z,44.17
2018-12-06T12:38:47.785Z,46.53
2018-12-06T12:41:17.208Z,50.93
2018-12-06T12:43:46.425Z,44.40
2018-12-06T12:46:17.062Z,50.27
2018-12-06T12:48:46.432Z,50.27
2018-12-06T12:51:15.861Z,45.87
2018-12-06T12:53:45.092Z,51.07
2018-12-06T12:56:14.302Z,56.87
2018-12-06T12:58:43.622Z,53.30
2018-12-06T13:01:12.855Z,51.27
2018-12-06T13:03:42.117Z,51.40
2018-12-06T13:06:11.447Z,62.13
2018-12-06T13:08:40.674Z,51.57
2018-12-06T13:11:09.948Z,61.20
2018-12-06T13:13:39.211Z,53.07
2018-12-06T13:16:08.460Z,47.60
2018-12-06T13:18:37.710Z,56.40
2018-12-06T13:21:07.156Z,67.60
2018-12-06T13:23:36.654Z,60.97
2018-12-06T13:26:06.128Z,58.23
2018-12-06T13:28:35.483Z,56.13
2018-12-06T13:31:04.924Z,49.80
2018-12-06T13:33:34.466Z,63.13
2018-12-06T13:36:06.593Z,65.53
2018-12-06T13:38:35.950Z,63.93
2018-12-06T13:41:05.528Z,65.23
2018-12-06T13:43:34.049Z,61.60
2018-12-06T13:46:03.517Z,63.13
2018-12-06T13:48:32.840Z,58.90
2018-12-06T13:51:02.143Z,57.47
2018-12-06T13:53:31.408Z,57.03
2018-12-06T13:56:00.642Z,58.17
2018-12-06T14:01:23.533Z,62.50
2018-12-06T14:03:53.185Z,58.27
2018-12-06T14:06:22.610Z,57.77
2018-12-06T14:08:51.923Z,58.23
2018-12-06T14:11:21.163Z,65.83
2018-12-06T14:13:50.433Z,70.13
2018-12-06T14:16:19.803Z,72.33
2018-12-06T14:18:50.843Z,62.37
2018-12-06T14:21:20.108Z,64.97
2018-12-06T14:23:49.320Z,64.40
2018-12-06T14:26:18.554Z,59.83
2018-12-06T14:28:47.776Z,77.07
2018-12-06T14:31:17.017Z,62.90
2018-12-06T14:33:46.415Z,56.27
2018-12-06T14:36:15.642Z,69.57
2018-12-06T14:38:45.006Z,65.83
2018-12-06T14:41:14.222Z,73.83
2018-12-06T14:43:43.571Z,75.03
2018-12-06T14:46:12.872Z,76.50
2018-12-06T14:48:42.103Z,66.07
2018-12-06T14:51:11.478Z,71.23
2018-12-06T14:53:40.819Z,79.93
2018-12-06T14:56:10.038Z,72.57
2018-12-06T14:58:39.293Z,59.30
2018-12-06T15:01:08.731Z,65.23
2018-12-06T15:03:38.048Z,65.33
2018-12-06T15:06:07.385Z,143.03
2018-12-06T15:08:36.618Z,96.77
2018-12-06T15:11:05.823Z,73.70
2018-12-06T15:13:35.893Z,65.83
2018-12-06T15:16:05.458Z,66.97
2018-12-06T15:18:34.687Z,68.30
2018-12-06T15:21:04.219Z,65.90
2018-12-06T15:23:33.555Z,71.03
2018-12-06T15:26:02.869Z,69.13
2018-12-06T15:28:32.185Z,72.77
2018-12-06T15:31:01.498Z,79.40
2018-12-06T15:33:30.832Z,83.90
2018-12-06T15:36:00.061Z,68.57
2018-12-06T15:38:30.339Z,79.20
2018-12-06T15:40:59.648Z,78.33
2018-12-06T15:43:28.995Z,69.83
2018-12-06T15:45:58.355Z,70.07
2018-12-06T15:48:27.669Z,63.50
2018-12-06T15:50:56.882Z,74.27
2018-12-06T15:53:26.184Z,77.43
2018-12-06T15:55:55.460Z,75.67
2018-12-06T15:58:24.691Z,67.60
2018-12-06T16:00:53.994Z,72.60
2018-12-06T16:03:23.306Z,68.57
2018-12-06T16:05:52.609Z,86.73
2018-12-06T16:08:22.124Z,77.07
2018-12-06T16:10:51.414Z,66.17
2018-12-06T16:13:21.147Z,67.70
2018-12-06T16:15:50.970Z,70.37
2018-12-06T16:18:20.354Z,65.40
2018-12-06T16:20:49.559Z,80.17
2018-12-06T16:23:18.883Z,58.83
2018-12-06T16:25:48.198Z,62.10
2018-12-06T16:28:17.415Z,74.60
2018-12-06T16:30:46.841Z,65.90
2018-12-06T16:33:16.165Z,64.73
2018-12-06T16:35:46.978Z,75.17
2018-12-06T16:38:16.340Z,69.83
2018-12-06T16:40:46.354Z,66.27
2018-12-06T16:43:15.633Z,63.17
2018-12-06T16:45:45.302Z,67.47
2018-12-06T16:48:14.567Z,70.60
2018-12-06T16:50:43.831Z,65.77
2018-12-06T16:53:14.257Z,59.93
2018-12-06T16:58:40.907Z,45.90
2018-12-06T17:01:10.222Z,43.27
2018-12-06T17:03:39.560Z,50.17
2018-12-06T17:06:09.601Z,82.67
2018-12-06T17:08:38.843Z,76.03
2018-12-06T17:11:08.071Z,60.47
2018-12-06T17:13:37.418Z,56.40
2018-12-06T17:16:06.817Z,66.93
2018-12-06T17:18:36.118Z,78.10
2018-12-06T17:21:05.445Z,85.70
2018-12-06T17:23:34.715Z,80.37
2018-12-06T17:26:04.130Z,75.63
2018-12-06T17:28:34.181Z,91.07
2018-12-06T17:31:03.383Z,98.53
2018-12-06T17:33:32.617Z,104.80
2018-12-06T17:36:01.838Z,89.97
2018-12-06T17:38:31.630Z,98.70
2018-12-06T17:41:00.921Z,85.67
2018-12-06T17:43:30.149Z,98.70
2018-12-06T17:45:59.404Z,81.93
2018-12-06T17:48:28.726Z,73.83
2018-12-06T17:50:57.945Z,72.83
2018-12-06T17:53:27.299Z,84.27
2018-12-06T17:55:57.304Z,67.83
2018-12-06T17:58:29.170Z,77.77
2018-12-06T18:00:58.488Z,66.50
2018-12-06T18:03:27.782Z,79.77
2018-12-06T18:05:57.039Z,65.37
2018-12-06T18:08:27.071Z,82.20
2018-12-06T18:10:56.414Z,82.20
2018-12-06T18:13:25.810Z,78.30
2018-12-06T18:15:55.313Z,65.00
2018-12-06T18:18:24.644Z,73.83
2018-12-06T18:20:54.022Z,71.10
2018-12-06T18:23:23.323Z,80.43
2018-12-06T18:25:52.562Z,81.97
2018-12-06T18:28:21.798Z,71.67
2018-12-06T18:30:51.114Z,67.00
2018-12-06T18:33:20.326Z,47.83
2018-12-06T18:35:49.550Z,44.93
2018-12-06T18:38:18.777Z,62.30
2018-12-06T18:40:47.979Z,63.70
2018-12-06T18:43:17.655Z,60.40
2018-12-06T18:45:47.130Z,46.70
2018-12-06T18:48:16.417Z,55.83
2018-12-06T18:50:45.728Z,53.70
2018-12-06T18:53:14.979Z,57.10
2018-12-06T18:55:44.318Z,59.57
2018-12-06T18:58:13.523Z,50.70
2018-12-06T19:00:42.810Z,43.23
2018-12-06T19:03:12.451Z,51.00
2018-12-06T19:05:41.821Z,48.87
2018-12-06T19:08:11.179Z,65.80
2018-12-06T19:10:40.843Z,86.63
2018-12-06T19:13:10.258Z,95.30
2018-12-06T19:15:39.763Z,56.53
2018-12-06T19:18:09.373Z,70.63
2018-12-06T19:20:38.634Z,69.73
2018-12-06T19:23:08.026Z,58.67
2018-12-06T19:25:37.378Z,55.40
2018-12-06T19:28:06.927Z,61.87
2018-12-06T19:30:37.455Z,59.53
2018-12-06T19:33:06.981Z,67.43
2018-12-06T19:35:38.683Z,56.30
2018-12-06T19:38:08.109Z,56.33
2018-12-06T19:40:37.833Z,75.73
2018-12-06T19:43:07.111Z,59.23
2018-12-06T19:45:36.659Z,61.80
2018-12-06T19:48:06.107Z,52.53
2018-12-06T19:50:35.340Z,71.33
2018-12-06T19:53:05.099Z,61.70
2018-12-06T19:55:34.345Z,60.73
2018-12-06T19:58:03.864Z,71.47
2018-12-06T20:00:33.534Z,47.90
2018-12-06T20:03:03.855Z,52.73
2018-12-06T20:05:33.148Z,60.70
2018-12-06T20:08:02.638Z,65.07
2018-12-06T20:10:31.952Z,53.77
2018-12-06T20:13:01.598Z,48.27
2018-12-06T20:15:31.072Z,56.50
2018-12-06T20:18:00.464Z,48.97
2018-12-06T20:20:29.906Z,56.17
2018-12-06T20:22:59.178Z,49.40
2018-12-06T20:25:28.606Z,57.80
2018-12-06T20:27:57.864Z,60.17
2018-12-06T20:30:27.332Z,67.37
2018-12-06T20:32:56.611Z,52.97
2018-12-06T20:35:25.922Z,84.10
2018-12-06T20:37:55.694Z,58.70
2018-12-06T20:40:25.242Z,62.73
2018-12-06T20:42:54.540Z,55.33
2018-12-06T20:45:23.859Z,48.83
2018-12-06T20:47:53.190Z,43.43
2018-12-06T20:50:22.617Z,51.93
2018-12-06T20:52:51.909Z,46.07
2018-12-06T20:55:21.882Z,51.10
2018-12-06T20:57:51.102Z,53.97
2018-12-06T21:00:20.378Z,37.60
2018-12-06T21:02:49.690Z,40.23
2018-12-06T21:05:18.962Z,41.03
2018-12-06T21:07:48.288Z,46.77
2018-12-06T21:10:17.554Z,47.43
2018-12-06T21:12:46.823Z,44.37
2018-12-06T21:15:16.231Z,38.87
2018-12-06T21:17:45.530Z,38.03
2018-12-06T21:20:14.870Z,49.80
2018-12-06T21:22:44.198Z,39.23
2018-12-06T21:25:16.581Z,49.73
2018-12-06T21:27:45.962Z,41.67
2018-12-06T21:30:15.226Z,42.10
2018-12-06T21:32:44.562Z,48.40
2018-12-06T21:35:13.862Z,44.83
2018-12-06T21:37:43.102Z,50.10
2018-12-06T21:40:12.426Z,48.77
2018-12-06T21:42:41.781Z,64.57
2018-12-06T21:45:11.189Z,54.83
2018-12-06T21:47:40.434Z,46.73
2018-12-06T21:50:10.280Z,48.93
2018-12-06T21:52:39.603Z,43.27
2018-12-06T21:55:08.948Z,39.53
2018-12-06T21:57:38.319Z,49.00
2018-12-06T22:00:08.424Z,56.07
2018-12-06T22:02:37.805Z,51.93
2018-12-06T22:05:07.529Z,43.07
2018-12-06T22:07:37.023Z,55.80
2018-12-06T22:10:07.889Z,49.43
2018-12-06T22:12:37.152Z,47.63
2018-12-06T22:15:06.665Z,52.30
2018-12-06T22:17:36.006Z,45.13
2018-12-06T22:20:05.989Z,57.73
2018-12-06T22:22:35.216Z,50.17
2018-12-06T22:25:04.941Z,49.00
2018-12-06T22:27:34.177Z,46.53
2018-12-06T22:30:03.688Z,61.80
2018-12-06T22:32:32.921Z,36.00
2018-12-06T22:35:02.150Z,34.50
2018-12-06T22:37:31.478Z,42.00
2018-12-06T22:40:00.715Z,42.03
2018-12-06T22:42:29.931Z,29.80
2018-12-06T22:45:20.117Z,47.00
2018-12-06T22:47:49.618Z,58.93
2018-12-06T22:50:18.837Z,41.33
2018-12-06T22:52:48.049Z,50.33
2018-12-06T22:55:17.292Z,44.50
2018-12-06T22:57:46.558Z,48.50
2018-12-06T23:00:16.614Z,51.03
2018-12-06T23:02:45.899Z,46.97
2018-12-06T23:05:15.122Z,50.60
2018-12-06T23:07:44.514Z,59.50
2018-12-06T23:10:13.816Z,36.77
2018-12-06T23:12:43.114Z,58.77
2018-12-06T23:15:12.436Z,72.63
2018-12-06T23:17:41.823Z,59.60
2018-12-06T23:20:11.182Z,60.10
2018-12-06T23:22:40.526Z,40.17
2018-12-06T23:25:09.771Z,42.20
2018-12-06T23:27:39.333Z,55.80
2018-12-06T23:30:08.786Z,51.10
2018-12-06T23:32:38.103Z,55.53
2018-12-06T23:35:07.411Z,53.70
2018-12-06T23:37:36.634Z,51.33
2018-12-06T23:40:06.178Z,38.90
2018-12-06T23:42:35.494Z,47.70
2018-12-06T23:45:05.347Z,44.97
2018-12-06T23:47:34.580Z,47.27
2018-12-06T23:50:04.151Z,51.80
2018-12-06T23:52:33.570Z,49.00
2018-12-06T23:55:02.806Z,46.33
2018-12-06T23:57:32.293Z,42.97
